Girard, Illinois
Current Conditions -  °F | °C
As of 3:35 PM on Saturday 25 Oct 2014 (Local Time) from K3LF Reporting Station
Clear Clear  
Wind Chill: 78°   Ceiling: Unl
Heat Index: 79°   Visibility: 10mi
Dew Point: 50°   Wind: 9mph
Humidity: 37%   Direction: 300°WNW
Pressure: 30"   Gusts: NA
Location:  39.45°N, 89.78°W
Report Text: K3LF 252035Z AUTO 30008KT 260V320 10SM CLR 26/10 A3000 RMK AO2 T02580102
Loading
Personal Weather Stations






























Interactive Weather Map
Tropical Storm Tracking
New forecast layout! Learn more

10-Day Weather Forecast

Advertisements
Track Severe Weather on mobile